sensor_id;sensor_type;location;lat;lon;timestamp;pressure;altitude;pressure_sealevel;temperature;humidity
17525;BME280;40431;52.198;9.902;2022-07-04T00:00:09;100903.38;;;18.35;74.41
17525;BME280;40431;52.198;9.902;2022-07-04T00:02:38;100892.63;;;18.32;74.35
17525;BME280;40431;52.198;9.902;2022-07-04T00:05:09;100896.50;;;18.29;74.42
17525;BME280;40431;52.198;9.902;2022-07-04T00:07:40;100888.72;;;18.25;74.73
17525;BME280;40431;52.198;9.902;2022-07-04T00:10:14;100888.06;;;18.11;75.09
17525;BME280;40431;52.198;9.902;2022-07-04T00:12:44;100891.25;;;18.16;75.13
17525;BME280;40431;52.198;9.902;2022-07-04T00:15:13;100891.78;;;18.10;75.19
17525;BME280;40431;52.198;9.902;2022-07-04T00:17:41;100889.91;;;18.11;75.55
17525;BME280;40431;52.198;9.902;2022-07-04T00:20:09;100899.03;;;18.11;75.26
17525;BME280;40431;52.198;9.902;2022-07-04T00:22:36;100893.81;;;18.08;75.50
17525;BME280;40431;52.198;9.902;2022-07-04T00:25:03;100894.69;;;18.09;75.17
17525;BME280;40431;52.198;9.902;2022-07-04T00:27:29;100891.31;;;18.05;75.12
17525;BME280;40431;52.198;9.902;2022-07-04T00:29:57;100898.59;;;17.95;75.42
17525;BME280;40431;52.198;9.902;2022-07-04T00:32:24;100904.00;;;17.96;75.19
17525;BME280;40431;52.198;9.902;2022-07-04T00:34:50;100905.47;;;17.89;75.63
17525;BME280;40431;52.198;9.902;2022-07-04T00:37:17;100909.81;;;17.92;75.35
17525;BME280;40431;52.198;9.902;2022-07-04T00:39:43;100904.34;;;17.92;75.52
17525;BME280;40431;52.198;9.902;2022-07-04T00:42:10;100896.38;;;17.89;75.67
17525;BME280;40431;52.198;9.902;2022-07-04T00:44:36;100893.88;;;17.85;75.51
17525;BME280;40431;52.198;9.902;2022-07-04T00:47:05;100901.41;;;17.83;75.86
17525;BME280;40431;52.198;9.902;2022-07-04T00:49:32;100904.28;;;17.82;75.80
17525;BME280;40431;52.198;9.902;2022-07-04T00:51:59;100899.91;;;17.79;76.10
17525;BME280;40431;52.198;9.902;2022-07-04T00:54:28;100901.66;;;17.80;76.18
17525;BME280;40431;52.198;9.902;2022-07-04T00:56:56;100902.25;;;17.84;76.38
17525;BME280;40431;52.198;9.902;2022-07-04T00:59:24;100906.59;;;17.86;76.08
17525;BME280;40431;52.198;9.902;2022-07-04T01:01:55;100904.53;;;17.79;76.09
17525;BME280;40431;52.198;9.902;2022-07-04T01:04:26;100906.41;;;17.78;76.20
17525;BME280;40431;52.198;9.902;2022-07-04T01:06:54;100911.28;;;17.75;76.72
17525;BME280;40431;52.198;9.902;2022-07-04T01:09:22;100905.94;;;17.73;76.62
17525;BME280;40431;52.198;9.902;2022-07-04T01:11:50;100903.94;;;17.75;77.57
17525;BME280;40431;52.198;9.902;2022-07-04T01:14:18;100898.44;;;17.75;77.03
17525;BME280;40431;52.198;9.902;2022-07-04T01:16:45;100899.59;;;17.73;77.06
17525;BME280;40431;52.198;9.902;2022-07-04T01:19:13;100905.44;;;17.68;77.26
17525;BME280;40431;52.198;9.902;2022-07-04T01:21:42;100902.97;;;17.65;77.92
17525;BME280;40431;52.198;9.902;2022-07-04T01:24:13;100897.50;;;17.65;78.12
17525;BME280;40431;52.198;9.902;2022-07-04T01:26:41;100904.97;;;17.63;78.20
17525;BME280;40431;52.198;9.902;2022-07-04T01:29:17;100905.25;;;17.60;78.43
17525;BME280;40431;52.198;9.902;2022-07-04T01:31:50;100900.03;;;17.57;77.90
17525;BME280;40431;52.198;9.902;2022-07-04T01:34:34;100893.06;;;17.52;78.40
17525;BME280;40431;52.198;9.902;2022-07-04T01:37:06;100903.75;;;17.56;78.47
17525;BME280;40431;52.198;9.902;2022-07-04T01:39:34;100894.91;;;17.52;78.40
17525;BME280;40431;52.198;9.902;2022-07-04T01:42:05;100905.75;;;17.53;78.54
17525;BME280;40431;52.198;9.902;2022-07-04T01:44:33;100916.25;;;17.48;78.62
17525;BME280;40431;52.198;9.902;2022-07-04T01:47:02;100910.88;;;17.47;78.44
17525;BME280;40431;52.198;9.902;2022-07-04T01:49:31;100905.28;;;17.48;79.03
17525;BME280;40431;52.198;9.902;2022-07-04T01:51:59;100910.38;;;17.53;78.65
17525;BME280;40431;52.198;9.902;2022-07-04T01:54:28;100910.78;;;17.48;78.63
17525;BME280;40431;52.198;9.902;2022-07-04T01:56:56;100912.00;;;17.44;78.51
17525;BME280;40431;52.198;9.902;2022-07-04T01:59:23;100917.97;;;17.49;78.34
17525;BME280;40431;52.198;9.902;2022-07-04T02:02:11;100920.72;;;17.49;78.37
17525;BME280;40431;52.198;9.902;2022-07-04T02:04:37;100901.94;;;17.45;78.36
17525;BME280;40431;52.198;9.902;2022-07-04T02:07:05;100900.81;;;17.47;78.18
17525;BME280;40431;52.198;9.902;2022-07-04T02:09:34;100897.59;;;17.42;78.39
17525;BME280;40431;52.198;9.902;2022-07-04T02:12:02;100899.56;;;17.40;78.32
17525;BME280;40431;52.198;9.902;2022-07-04T02:14:47;100892.03;;;17.32;78.49
17525;BME280;40431;52.198;9.902;2022-07-04T02:17:14;100892.78;;;17.23;79.09
17525;BME280;40431;52.198;9.902;2022-07-04T02:19:42;100904.25;;;17.17;79.36
17525;BME280;40431;52.198;9.902;2022-07-04T02:22:10;100905.25;;;17.16;79.68
17525;BME280;40431;52.198;9.902;2022-07-04T02:24:40;100900.41;;;17.08;79.91
17525;BME280;40431;52.198;9.902;2022-07-04T02:27:07;100908.38;;;17.11;79.85
17525;BME280;40431;52.198;9.902;2022-07-04T02:29:36;100910.28;;;16.99;80.45
17525;BME280;40431;52.198;9.902;2022-07-04T02:32:10;100903.03;;;16.98;80.47
17525;BME280;40431;52.198;9.902;2022-07-04T02:34:41;100897.16;;;17.03;80.50
17525;BME280;40431;52.198;9.902;2022-07-04T02:37:13;100902.53;;;17.05;80.46
17525;BME280;40431;52.198;9.902;2022-07-04T02:39:45;100905.53;;;17.01;80.73
17525;BME280;40431;52.198;9.902;2022-07-04T02:42:13;100916.72;;;17.10;81.13
17525;BME280;40431;52.198;9.902;2022-07-04T02:44:41;100909.66;;;17.07;80.72
17525;BME280;40431;52.198;9.902;2022-07-04T02:47:10;100912.13;;;17.10;80.53
17525;BME280;40431;52.198;9.902;2022-07-04T02:49:38;100921.19;;;17.11;80.68
17525;BME280;40431;52.198;9.902;2022-07-04T02:52:09;100917.47;;;17.12;80.59
17525;BME280;40431;52.198;9.902;2022-07-04T02:54:37;100925.81;;;17.10;80.33
17525;BME280;40431;52.198;9.902;2022-07-04T02:57:07;100924.94;;;17.10;80.62
17525;BME280;40431;52.198;9.902;2022-07-04T02:59:35;100924.06;;;17.09;80.68
17525;BME280;40431;52.198;9.902;2022-07-04T03:02:06;100930.41;;;17.10;80.61
17525;BME280;40431;52.198;9.902;2022-07-04T03:04:32;100926.09;;;17.07;80.61
17525;BME280;40431;52.198;9.902;2022-07-04T03:06:58;100934.31;;;17.07;80.94
17525;BME280;40431;52.198;9.902;2022-07-04T03:09:25;100931.03;;;17.13;81.21
17525;BME280;40431;52.198;9.902;2022-07-04T03:11:52;100941.00;;;17.14;80.80
17525;BME280;40431;52.198;9.902;2022-07-04T03:14:20;100942.00;;;17.13;80.64
17525;BME280;40431;52.198;9.902;2022-07-04T03:16:47;100949.50;;;17.11;80.69
17525;BME280;40431;52.198;9.902;2022-07-04T03:19:13;100943.38;;;17.08;80.91
17525;BME280;40431;52.198;9.902;2022-07-04T03:21:40;100951.47;;;17.09;80.99
17525;BME280;40431;52.198;9.902;2022-07-04T03:24:06;100958.19;;;17.05;81.10
17525;BME280;40431;52.198;9.902;2022-07-04T03:26:37;100956.31;;;17.06;81.01
17525;BME280;40431;52.198;9.902;2022-07-04T03:29:03;100964.66;;;17.04;81.01
17525;BME280;40431;52.198;9.902;2022-07-04T03:31:31;100956.56;;;17.02;81.05
17525;BME280;40431;52.198;9.902;2022-07-04T03:33:57;100960.44;;;17.00;81.06
17525;BME280;40431;52.198;9.902;2022-07-04T03:36:24;100963.44;;;16.97;81.29
17525;BME280;40431;52.198;9.902;2022-07-04T03:38:50;100965.81;;;16.90;81.66
17525;BME280;40431;52.198;9.902;2022-07-04T03:41:17;100968.66;;;17.00;81.97
17525;BME280;40431;52.198;9.902;2022-07-04T03:43:43;100976.25;;;17.08;81.57
17525;BME280;40431;52.198;9.902;2022-07-04T03:46:09;100973.75;;;17.16;81.32
17525;BME280;40431;52.198;9.902;2022-07-04T03:48:37;100978.88;;;17.21;80.94
17525;BME280;40431;52.198;9.902;2022-07-04T03:51:04;100971.50;;;17.21;80.39
17525;BME280;40431;52.198;9.902;2022-07-04T03:53:30;100970.38;;;17.24;81.21
17525;BME280;40431;52.198;9.902;2022-07-04T03:55:56;100975.59;;;17.27;80.31
17525;BME280;40431;52.198;9.902;2022-07-04T03:58:23;100971.25;;;17.35;81.08
17525;BME280;40431;52.198;9.902;2022-07-04T04:00:49;100980.53;;;17.44;79.99
17525;BME280;40431;52.198;9.902;2022-07-04T04:03:15;100991.00;;;17.50;79.58
17525;BME280;40431;52.198;9.902;2022-07-04T04:06:00;100985.75;;;17.59;79.27
17525;BME280;40431;52.198;9.902;2022-07-04T04:08:27;100991.00;;;17.62;78.70
17525;BME280;40431;52.198;9.902;2022-07-04T04:10:53;100981.22;;;17.69;79.21
17525;BME280;40431;52.198;9.902;2022-07-04T04:13:20;100986.81;;;17.79;78.51
17525;BME280;40431;52.198;9.902;2022-07-04T04:15:46;100983.41;;;17.86;78.10
17525;BME280;40431;52.198;9.902;2022-07-04T04:18:12;100984.69;;;17.94;77.70
17525;BME280;40431;52.198;9.902;2022-07-04T04:20:39;100992.78;;;17.95;77.70
17525;BME280;40431;52.198;9.902;2022-07-04T04:23:07;101000.13;;;17.95;77.51
17525;BME280;40431;52.198;9.902;2022-07-04T04:25:33;100999.41;;;17.93;77.45
17525;BME280;40431;52.198;9.902;2022-07-04T04:27:59;101002.88;;;17.83;77.68
17525;BME280;40431;52.198;9.902;2022-07-04T04:30:26;101002.66;;;17.75;77.77
17525;BME280;40431;52.198;9.902;2022-07-04T04:32:52;100997.84;;;17.56;79.10
17525;BME280;40431;52.198;9.902;2022-07-04T04:35:19;101008.09;;;17.43;79.50
17525;BME280;40431;52.198;9.902;2022-07-04T04:37:46;101011.34;;;17.25;80.50
17525;BME280;40431;52.198;9.902;2022-07-04T04:40:13;101011.75;;;17.09;81.60
17525;BME280;40431;52.198;9.902;2022-07-04T04:42:40;101017.63;;;17.05;81.81
17525;BME280;40431;52.198;9.902;2022-07-04T04:45:08;101009.72;;;16.89;82.84
17525;BME280;40431;52.198;9.902;2022-07-04T04:47:34;101019.84;;;16.99;82.89
17525;BME280;40431;52.198;9.902;2022-07-04T04:50:01;101012.84;;;17.07;82.82
17525;BME280;40431;52.198;9.902;2022-07-04T04:52:28;101018.72;;;17.02;82.17
17525;BME280;40431;52.198;9.902;2022-07-04T04:54:55;101024.06;;;17.03;82.72
17525;BME280;40431;52.198;9.902;2022-07-04T04:57:22;101022.97;;;17.06;83.02
17525;BME280;40431;52.198;9.902;2022-07-04T04:59:49;101029.56;;;17.03;83.47
17525;BME280;40431;52.198;9.902;2022-07-04T05:02:15;101033.41;;;17.12;83.16
17525;BME280;40431;52.198;9.902;2022-07-04T05:04:41;101032.06;;;17.18;83.46
17525;BME280;40431;52.198;9.902;2022-07-04T05:07:08;101032.56;;;17.23;82.79
17525;BME280;40431;52.198;9.902;2022-07-04T05:09:34;101036.16;;;17.24;83.17
17525;BME280;40431;52.198;9.902;2022-07-04T05:12:01;101037.41;;;17.19;83.38
17525;BME280;40431;52.198;9.902;2022-07-04T05:14:28;101039.66;;;17.26;83.98
17525;BME280;40431;52.198;9.902;2022-07-04T05:16:55;101052.97;;;17.30;83.83
17525;BME280;40431;52.198;9.902;2022-07-04T05:19:21;101050.97;;;17.32;84.19
17525;BME280;40431;52.198;9.902;2022-07-04T05:21:48;101045.59;;;17.42;84.22
17525;BME280;40431;52.198;9.902;2022-07-04T05:24:15;101040.63;;;17.47;84.61
17525;BME280;40431;52.198;9.902;2022-07-04T05:26:41;101043.59;;;17.56;84.68
17525;BME280;40431;52.198;9.902;2022-07-04T05:29:08;101047.44;;;17.64;85.21
17525;BME280;40431;52.198;9.902;2022-07-04T05:31:35;101038.81;;;17.69;84.71
17525;BME280;40431;52.198;9.902;2022-07-04T05:34:02;101038.81;;;17.80;85.03
17525;BME280;40431;52.198;9.902;2022-07-04T05:36:28;101045.50;;;17.88;85.68
17525;BME280;40431;52.198;9.902;2022-07-04T05:38:55;101041.28;;;17.95;85.49
17525;BME280;40431;52.198;9.902;2022-07-04T05:41:21;101043.47;;;18.12;84.71
17525;BME280;40431;52.198;9.902;2022-07-04T05:43:47;101041.94;;;18.19;84.13
17525;BME280;40431;52.198;9.902;2022-07-04T05:46:14;101042.41;;;18.25;84.15
17525;BME280;40431;52.198;9.902;2022-07-04T05:48:42;101038.75;;;18.35;83.33
17525;BME280;40431;52.198;9.902;2022-07-04T05:51:08;101030.47;;;18.47;83.30
17525;BME280;40431;52.198;9.902;2022-07-04T05:53:34;101029.84;;;18.43;83.55
17525;BME280;40431;52.198;9.902;2022-07-04T05:56:02;101039.50;;;18.59;84.16
17525;BME280;40431;52.198;9.902;2022-07-04T05:58:28;101041.44;;;18.47;83.02
17525;BME280;40431;52.198;9.902;2022-07-04T06:00:55;101035.63;;;18.40;83.01
17525;BME280;40431;52.198;9.902;2022-07-04T06:03:21;101045.09;;;18.36;83.88
17525;BME280;40431;52.198;9.902;2022-07-04T06:05:49;101038.41;;;18.29;83.87
17525;BME280;40431;52.198;9.902;2022-07-04T06:08:15;101035.84;;;18.37;83.52
17525;BME280;40431;52.198;9.902;2022-07-04T06:10:41;101038.28;;;18.51;83.55
17525;BME280;40431;52.198;9.902;2022-07-04T06:13:08;101038.94;;;18.65;82.10
17525;BME280;40431;52.198;9.902;2022-07-04T06:15:34;101039.88;;;18.75;81.90
17525;BME280;40431;52.198;9.902;2022-07-04T06:18:01;101038.78;;;18.88;81.58
17525;BME280;40431;52.198;9.902;2022-07-04T06:20:28;101039.78;;;19.08;80.25
17525;BME280;40431;52.198;9.902;2022-07-04T06:22:56;101033.09;;;19.31;79.66
17525;BME280;40431;52.198;9.902;2022-07-04T06:25:22;101027.19;;;19.36;79.16
17525;BME280;40431;52.198;9.902;2022-07-04T06:27:49;101029.56;;;19.50;78.95
17525;BME280;40431;52.198;9.902;2022-07-04T06:30:17;101018.56;;;19.50;76.80
17525;BME280;40431;52.198;9.902;2022-07-04T06:32:45;101030.44;;;19.61;75.84
17525;BME280;40431;52.198;9.902;2022-07-04T06:35:12;101028.97;;;19.47;75.94
17525;BME280;40431;52.198;9.902;2022-07-04T06:37:58;101023.84;;;19.32;75.47
17525;BME280;40431;52.198;9.902;2022-07-04T06:40:24;101025.72;;;19.32;76.98
17525;BME280;40431;52.198;9.902;2022-07-04T06:42:51;101029.47;;;19.31;76.16
17525;BME280;40431;52.198;9.902;2022-07-04T06:45:17;101030.63;;;19.28;77.48
17525;BME280;40431;52.198;9.902;2022-07-04T06:47:44;101033.72;;;19.45;79.07
17525;BME280;40431;52.198;9.902;2022-07-04T06:50:11;101033.31;;;19.59;75.76
17525;BME280;40431;52.198;9.902;2022-07-04T06:52:38;101027.41;;;19.64;75.12
17525;BME280;40431;52.198;9.902;2022-07-04T06:55:06;101030.03;;;19.75;75.61
17525;BME280;40431;52.198;9.902;2022-07-04T06:57:33;101032.63;;;19.77;74.01
17525;BME280;40431;52.198;9.902;2022-07-04T06:59:59;101044.16;;;20.01;72.92
17525;BME280;40431;52.198;9.902;2022-07-04T07:02:26;101038.66;;;20.21;70.68
17525;BME280;40431;52.198;9.902;2022-07-04T07:04:54;101029.69;;;20.09;70.27
17525;BME280;40431;52.198;9.902;2022-07-04T07:07:20;101039.06;;;20.16;70.82
17525;BME280;40431;52.198;9.902;2022-07-04T07:09:47;101028.06;;;20.36;70.85
17525;BME280;40431;52.198;9.902;2022-07-04T07:12:14;101033.41;;;20.47;68.89
17525;BME280;40431;52.198;9.902;2022-07-04T07:14:41;101030.94;;;20.54;65.74
17525;BME280;40431;52.198;9.902;2022-07-04T07:17:07;101024.25;;;20.66;66.68
17525;BME280;40431;52.198;9.902;2022-07-04T07:19:34;101025.16;;;20.57;67.93
17525;BME280;40431;52.198;9.902;2022-07-04T07:22:00;101038.34;;;20.34;67.65
17525;BME280;40431;52.198;9.902;2022-07-04T07:24:27;101036.19;;;20.18;67.76
17525;BME280;40431;52.198;9.902;2022-07-04T07:26:55;101040.09;;;19.96;69.59
17525;BME280;40431;52.198;9.902;2022-07-04T07:29:23;101042.00;;;20.05;67.82
17525;BME280;40431;52.198;9.902;2022-07-04T07:31:50;101037.91;;;20.19;67.51
17525;BME280;40431;52.198;9.902;2022-07-04T07:34:16;101038.34;;;20.53;64.42
17525;BME280;40431;52.198;9.902;2022-07-04T07:36:43;101041.09;;;20.73;64.53
17525;BME280;40431;52.198;9.902;2022-07-04T07:39:09;101038.03;;;20.86;63.92
17525;BME280;40431;52.198;9.902;2022-07-04T07:41:35;101040.06;;;20.84;63.68
17525;BME280;40431;52.198;9.902;2022-07-04T07:44:02;101038.63;;;20.60;62.46
17525;BME280;40431;52.198;9.902;2022-07-04T07:46:30;101037.03;;;20.38;64.92
17525;BME280;40431;52.198;9.902;2022-07-04T07:48:57;101030.81;;;20.36;66.01
17525;BME280;40431;52.198;9.902;2022-07-04T07:51:23;101039.94;;;20.36;66.38
17525;BME280;40431;52.198;9.902;2022-07-04T07:53:50;101049.06;;;20.57;66.13
17525;BME280;40431;52.198;9.902;2022-07-04T07:56:16;101037.59;;;20.71;64.56
17525;BME280;40431;52.198;9.902;2022-07-04T07:58:42;101037.59;;;20.61;63.98
17525;BME280;40431;52.198;9.902;2022-07-04T08:01:09;101034.38;;;20.66;64.44
17525;BME280;40431;52.198;9.902;2022-07-04T08:03:37;101044.88;;;20.72;63.96
17525;BME280;40431;52.198;9.902;2022-07-04T08:06:21;101044.28;;;20.59;64.57
17525;BME280;40431;52.198;9.902;2022-07-04T08:08:47;101042.09;;;20.52;63.62
17525;BME280;40431;52.198;9.902;2022-07-04T08:11:14;101032.56;;;20.37;64.45
17525;BME280;40431;52.198;9.902;2022-07-04T08:13:40;101039.22;;;20.44;65.45
17525;BME280;40431;52.198;9.902;2022-07-04T08:16:07;101037.16;;;20.56;63.06
17525;BME280;40431;52.198;9.902;2022-07-04T08:18:34;101031.09;;;20.72;63.68
17525;BME280;40431;52.198;9.902;2022-07-04T08:21:03;101022.94;;;20.80;61.24
17525;BME280;40431;52.198;9.902;2022-07-04T08:23:30;101013.25;;;21.14;59.84
17525;BME280;40431;52.198;9.902;2022-07-04T08:25:57;101011.47;;;21.23;58.58
17525;BME280;40431;52.198;9.902;2022-07-04T08:28:24;101011.44;;;21.60;60.36
17525;BME280;40431;52.198;9.902;2022-07-04T08:30:51;101012.03;;;21.82;56.08
17525;BME280;40431;52.198;9.902;2022-07-04T08:33:17;101012.56;;;21.67;56.51
17525;BME280;40431;52.198;9.902;2022-07-04T08:35:43;101021.69;;;21.68;60.10
17525;BME280;40431;52.198;9.902;2022-07-04T08:38:11;101021.00;;;21.28;61.05
17525;BME280;40431;52.198;9.902;2022-07-04T08:40:40;101016.31;;;21.39;61.30
17525;BME280;40431;52.198;9.902;2022-07-04T08:43:07;101023.38;;;21.51;60.55
17525;BME280;40431;52.198;9.902;2022-07-04T08:45:34;101025.88;;;21.54;59.95
17525;BME280;40431;52.198;9.902;2022-07-04T08:48:02;101010.50;;;21.69;59.79
17525;BME280;40431;52.198;9.902;2022-07-04T08:50:31;101019.91;;;21.95;59.83
17525;BME280;40431;52.198;9.902;2022-07-04T08:53:00;101017.25;;;22.03;58.04
17525;BME280;40431;52.198;9.902;2022-07-04T08:55:29;101011.56;;;22.23;57.29
17525;BME280;40431;52.198;9.902;2022-07-04T08:58:15;101017.13;;;22.31;56.52
17525;BME280;40431;52.198;9.902;2022-07-04T09:00:58;101017.13;;;22.31;56.79
17525;BME280;40431;52.198;9.902;2022-07-04T09:03:26;101025.13;;;22.16;57.33
17525;BME280;40431;52.198;9.902;2022-07-04T09:05:55;101030.22;;;21.75;57.81
17525;BME280;40431;52.198;9.902;2022-07-04T09:08:23;101041.56;;;21.44;58.19
17525;BME280;40431;52.198;9.902;2022-07-04T09:10:53;101037.22;;;21.41;57.85
17525;BME280;40431;52.198;9.902;2022-07-04T09:13:21;101031.06;;;21.57;56.29
17525;BME280;40431;52.198;9.902;2022-07-04T09:15:50;101032.13;;;21.74;55.95
17525;BME280;40431;52.198;9.902;2022-07-04T09:18:23;101028.44;;;21.83;56.49
17525;BME280;40431;52.198;9.902;2022-07-04T09:20:53;101019.91;;;21.77;55.12
17525;BME280;40431;52.198;9.902;2022-07-04T09:23:23;101025.03;;;21.90;53.92
17525;BME280;40431;52.198;9.902;2022-07-04T09:26:08;101017.63;;;22.26;52.44
17525;BME280;40431;52.198;9.902;2022-07-04T09:28:36;101022.75;;;22.57;51.78
17525;BME280;40431;52.198;9.902;2022-07-04T09:31:14;101023.16;;;22.89;51.51
17525;BME280;40431;52.198;9.902;2022-07-04T09:33:50;101030.34;;;22.81;49.11
17525;BME280;40431;52.198;9.902;2022-07-04T09:36:20;101024.25;;;23.04;51.41
17525;BME280;40431;52.198;9.902;2022-07-04T09:39:10;101025.91;;;22.89;49.99
17525;BME280;40431;52.198;9.902;2022-07-04T09:41:58;101031.88;;;22.76;48.63
17525;BME280;40431;52.198;9.902;2022-07-04T09:44:44;101026.00;;;22.52;48.16
17525;BME280;40431;52.198;9.902;2022-07-04T09:47:20;101023.00;;;22.28;48.94
17525;BME280;40431;52.198;9.902;2022-07-04T09:50:01;101012.34;;;22.33;49.54
17525;BME280;40431;52.198;9.902;2022-07-04T09:52:33;101018.25;;;22.56;49.85
17525;BME280;40431;52.198;9.902;2022-07-04T09:55:11;101017.44;;;22.90;48.30
17525;BME280;40431;52.198;9.902;2022-07-04T09:57:45;101016.59;;;22.63;45.57
17525;BME280;40431;52.198;9.902;2022-07-04T10:00:17;101017.06;;;22.23;47.45
17525;BME280;40431;52.198;9.902;2022-07-04T10:02:45;101011.88;;;22.38;45.96
17525;BME280;40431;52.198;9.902;2022-07-04T10:05:11;101021.88;;;22.57;46.38
17525;BME280;40431;52.198;9.902;2022-07-04T10:07:39;101004.06;;;22.77;46.12
17525;BME280;40431;52.198;9.902;2022-07-04T10:10:26;101017.94;;;22.85;45.45
17525;BME280;40431;52.198;9.902;2022-07-04T10:12:55;101013.56;;;23.09;45.26
17525;BME280;40431;52.198;9.902;2022-07-04T10:15:22;101006.72;;;23.13;44.14
17525;BME280;40431;52.198;9.902;2022-07-04T10:17:49;101003.69;;;23.33;43.02
17525;BME280;40431;52.198;9.902;2022-07-04T10:20:15;101005.88;;;23.21;43.49
17525;BME280;40431;52.198;9.902;2022-07-04T10:22:42;101002.25;;;23.21;44.56
17525;BME280;40431;52.198;9.902;2022-07-04T10:25:09;101004.72;;;23.32;45.13
17525;BME280;40431;52.198;9.902;2022-07-04T10:27:36;100995.06;;;23.36;44.11
17525;BME280;40431;52.198;9.902;2022-07-04T10:30:06;101007.69;;;23.39;42.95
17525;BME280;40431;52.198;9.902;2022-07-04T10:32:35;100998.03;;;23.43;41.71
17525;BME280;40431;52.198;9.902;2022-07-04T10:35:04;100996.13;;;23.43;42.47
17525;BME280;40431;52.198;9.902;2022-07-04T10:38:03;100989.56;;;23.44;43.77
17525;BME280;40431;52.198;9.902;2022-07-04T10:40:55;100989.63;;;23.69;42.92
17525;BME280;40431;52.198;9.902;2022-07-04T10:46:36;100984.53;;;23.91;42.50
17525;BME280;40431;52.198;9.902;2022-07-04T10:49:07;100989.38;;;24.05;44.05
17525;BME280;40431;52.198;9.902;2022-07-04T10:51:40;100980.03;;;23.98;43.37
17525;BME280;40431;52.198;9.902;2022-07-04T10:54:10;100981.25;;;24.20;43.26
17525;BME280;40431;52.198;9.902;2022-07-04T10:56:41;100983.47;;;24.33;41.59
17525;BME280;40431;52.198;9.902;2022-07-04T10:59:12;100971.53;;;24.41;42.94
17525;BME280;40431;52.198;9.902;2022-07-04T11:01:45;100978.97;;;24.57;41.92
17525;BME280;40431;52.198;9.902;2022-07-04T11:04:13;100982.28;;;24.68;40.34
17525;BME280;40431;52.198;9.902;2022-07-04T11:06:51;100984.50;;;24.57;41.14
17525;BME280;40431;52.198;9.902;2022-07-04T11:09:22;100980.03;;;24.72;40.86
17525;BME280;40431;52.198;9.902;2022-07-04T11:11:53;100981.41;;;24.35;41.62
17525;BME280;40431;52.198;9.902;2022-07-04T11:14:40;100982.06;;;24.62;42.17
17525;BME280;40431;52.198;9.902;2022-07-04T11:17:10;100978.75;;;24.91;42.40
17525;BME280;40431;52.198;9.902;2022-07-04T11:19:36;100965.69;;;25.08;40.61
17525;BME280;40431;52.198;9.902;2022-07-04T11:22:03;100981.91;;;24.80;41.46
17525;BME280;40431;52.198;9.902;2022-07-04T11:24:32;100972.50;;;24.97;42.05
17525;BME280;40431;52.198;9.902;2022-07-04T11:26:59;100954.59;;;25.08;41.37
17525;BME280;40431;52.198;9.902;2022-07-04T11:29:26;100956.00;;;25.04;41.13
17525;BME280;40431;52.198;9.902;2022-07-04T11:31:53;100964.22;;;24.81;41.30
17525;BME280;40431;52.198;9.902;2022-07-04T11:34:22;100963.41;;;24.64;41.17
17525;BME280;40431;52.198;9.902;2022-07-04T11:36:50;100956.50;;;24.27;41.42
17525;BME280;40431;52.198;9.902;2022-07-04T11:39:18;100958.22;;;24.20;42.12
17525;BME280;40431;52.198;9.902;2022-07-04T11:41:49;100962.00;;;24.02;42.45
17525;BME280;40431;52.198;9.902;2022-07-04T11:44:34;100959.25;;;24.27;43.79
17525;BME280;40431;52.198;9.902;2022-07-04T11:47:20;100956.13;;;24.63;42.59
17525;BME280;40431;52.198;9.902;2022-07-04T11:49:50;100966.50;;;24.77;41.44
17525;BME280;40431;52.198;9.902;2022-07-04T11:52:19;100953.63;;;24.84;40.89
17525;BME280;40431;52.198;9.902;2022-07-04T11:54:47;100949.66;;;24.87;41.42
17525;BME280;40431;52.198;9.902;2022-07-04T11:57:16;100950.97;;;25.08;42.38
17525;BME280;40431;52.198;9.902;2022-07-04T11:59:44;100946.56;;;25.22;40.41
17525;BME280;40431;52.198;9.902;2022-07-04T12:02:17;100948.81;;;25.26;40.50
17525;BME280;40431;52.198;9.902;2022-07-04T12:04:45;100960.75;;;25.27;40.46
17525;BME280;40431;52.198;9.902;2022-07-04T12:07:14;100954.41;;;25.10;40.51
17525;BME280;40431;52.198;9.902;2022-07-04T12:09:41;100956.25;;;25.26;41.12
17525;BME280;40431;52.198;9.902;2022-07-04T12:12:08;100956.94;;;25.28;40.76
17525;BME280;40431;52.198;9.902;2022-07-04T12:14:36;100954.16;;;25.36;40.13
17525;BME280;40431;52.198;9.902;2022-07-04T12:17:10;100951.84;;;25.48;40.46
17525;BME280;40431;52.198;9.902;2022-07-04T12:19:37;100956.69;;;25.46;40.31
17525;BME280;40431;52.198;9.902;2022-07-04T12:22:03;100958.22;;;25.17;39.73
17525;BME280;40431;52.198;9.902;2022-07-04T12:24:40;100952.81;;;25.15;39.98
17525;BME280;40431;52.198;9.902;2022-07-04T12:27:16;100948.16;;;25.16;40.09
17525;BME280;40431;52.198;9.902;2022-07-04T12:29:46;100945.56;;;25.14;40.33
17525;BME280;40431;52.198;9.902;2022-07-04T12:32:12;100946.78;;;25.12;40.23
17525;BME280;40431;52.198;9.902;2022-07-04T12:34:39;100942.78;;;25.14;40.25
17525;BME280;40431;52.198;9.902;2022-07-04T12:37:08;100949.78;;;24.94;40.42
17525;BME280;40431;52.198;9.902;2022-07-04T12:39:37;100947.91;;;24.94;41.18
17525;BME280;40431;52.198;9.902;2022-07-04T12:42:10;100952.47;;;24.46;41.54
17525;BME280;40431;52.198;9.902;2022-07-04T12:44:39;100951.63;;;24.45;41.89
17525;BME280;40431;52.198;9.902;2022-07-04T12:47:07;100954.75;;;24.50;42.83
17525;BME280;40431;52.198;9.902;2022-07-04T12:49:35;100947.63;;;24.64;41.75
17525;BME280;40431;52.198;9.902;2022-07-04T12:52:05;100936.97;;;24.93;41.69
17525;BME280;40431;52.198;9.902;2022-07-04T12:54:33;100940.81;;;24.92;41.34
17525;BME280;40431;52.198;9.902;2022-07-04T12:57:05;100944.09;;;24.87;40.95
17525;BME280;40431;52.198;9.902;2022-07-04T12:59:35;100945.03;;;24.63;40.84
17525;BME280;40431;52.198;9.902;2022-07-04T13:02:03;100942.59;;;24.43;41.51